createdAt,value
2018-12-31T00:03:31.156Z,13.00
2018-12-31T00:14:22.158Z,17.13
2018-12-31T00:19:40.626Z,20.90
2018-12-31T00:24:59.111Z,23.00
2018-12-31T00:30:17.583Z,23.97
2018-12-31T00:35:36.071Z,22.03
2018-12-31T00:40:54.670Z,19.63
2018-12-31T00:46:13.155Z,19.67
2018-12-31T00:51:31.622Z,18.77
2018-12-31T00:56:50.161Z,20.43
2018-12-31T01:07:39.092Z,23.70
2018-12-31T01:12:57.556Z,22.73
2018-12-31T01:18:16.100Z,20.13
2018-12-31T01:23:34.579Z,20.37
2018-12-31T01:28:53.203Z,18.77
2018-12-31T01:34:11.684Z,19.00
2018-12-31T01:39:30.163Z,21.13
2018-12-31T01:44:48.701Z,23.13
2018-12-31T01:55:37.703Z,22.73
2018-12-31T02:00:56.185Z,22.30
2018-12-31T02:11:47.192Z,25.40
2018-12-31T02:17:05.822Z,24.00
2018-12-31T02:22:24.662Z,21.87
2018-12-31T02:27:43.131Z,18.10
2018-12-31T02:33:01.605Z,16.93
2018-12-31T02:38:20.073Z,14.53
2018-12-31T02:43:38.554Z,12.13
2018-12-31T02:48:57.017Z,10.23
2018-12-31T02:59:46.243Z,13.30
2018-12-31T03:05:45.712Z,14.63
2018-12-31T03:11:04.261Z,13.97
2018-12-31T03:16:22.901Z,14.77
2018-12-31T03:21:41.345Z,16.17
2018-12-31T03:26:59.889Z,17.63
2018-12-31T03:32:18.378Z,18.43
2018-12-31T03:37:36.834Z,17.67
2018-12-31T03:42:55.370Z,18.70
2018-12-31T03:48:13.920Z,17.57
2018-12-31T03:53:32.397Z,18.73
2018-12-31T04:04:23.255Z,21.17
2018-12-31T04:10:01.347Z,22.17
2018-12-31T04:15:19.961Z,23.73
2018-12-31T04:20:38.506Z,25.07
2018-12-31T04:25:56.983Z,24.47
2018-12-31T04:31:15.459Z,25.80
2018-12-31T04:36:33.939Z,25.30
2018-12-31T04:41:52.490Z,27.33
2018-12-31T04:47:11.033Z,26.13
2018-12-31T04:52:29.875Z,26.00
2018-12-31T04:57:48.660Z,25.10
2018-12-31T05:03:26.475Z,28.17
2018-12-31T05:08:44.952Z,31.20
2018-12-31T05:14:03.410Z,27.93
2018-12-31T05:19:21.885Z,26.73
2018-12-31T05:24:40.350Z,26.17
2018-12-31T05:29:58.824Z,27.57
2018-12-31T05:35:37.076Z,27.73
2018-12-31T05:40:55.554Z,28.03
2018-12-31T05:46:14.037Z,29.70
2018-12-31T05:51:32.663Z,34.30
2018-12-31T05:56:51.213Z,31.27
2018-12-31T06:02:09.759Z,32.67
2018-12-31T06:07:28.239Z,34.10
2018-12-31T06:12:46.722Z,36.30
2018-12-31T06:18:05.202Z,35.07
2018-12-31T06:23:23.691Z,33.60
2018-12-31T06:34:15.089Z,36.23
2018-12-31T06:39:33.563Z,35.67
2018-12-31T06:44:52.049Z,36.47
2018-12-31T06:50:10.516Z,35.78
2018-12-31T06:55:28.987Z,36.50
2018-12-31T07:00:47.468Z,38.10
2018-12-31T07:06:05.944Z,37.30
2018-12-31T07:11:24.418Z,36.93
2018-12-31T07:16:42.888Z,38.37
2018-12-31T07:22:01.366Z,39.67
2018-12-31T07:27:19.845Z,36.73
2018-12-31T07:32:38.412Z,35.93
2018-12-31T07:37:56.950Z,37.17
2018-12-31T07:43:15.433Z,35.87
2018-12-31T07:48:33.920Z,35.97
2018-12-31T07:53:52.461Z,37.10
2018-12-31T07:59:10.932Z,36.40
2018-12-31T08:04:29.481Z,37.20
2018-12-31T08:09:48.113Z,35.90
2018-12-31T08:15:46.944Z,35.50
2018-12-31T08:21:05.494Z,35.73
2018-12-31T08:26:24.258Z,34.83
2018-12-31T08:31:42.741Z,33.18
2018-12-31T08:37:01.252Z,34.23
2018-12-31T08:42:19.794Z,30.13
2018-12-31T08:47:38.275Z,31.00
2018-12-31T08:52:56.746Z,28.77
2018-12-31T08:58:15.223Z,28.63
2018-12-31T09:03:33.712Z,27.63
2018-12-31T09:08:52.281Z,26.47
2018-12-31T09:14:10.868Z,25.63
2018-12-31T09:19:29.336Z,27.97
2018-12-31T09:24:47.886Z,29.53
2018-12-31T09:30:06.497Z,29.00
2018-12-31T09:35:25.402Z,27.90
2018-12-31T09:40:43.852Z,25.70
2018-12-31T09:46:02.397Z,22.97
2018-12-31T09:51:20.862Z,23.10
2018-12-31T09:56:39.337Z,20.83
2018-12-31T10:01:57.797Z,23.00
2018-12-31T10:07:16.766Z,28.23
2018-12-31T10:12:35.239Z,30.40
2018-12-31T10:23:50.871Z,26.97
2018-12-31T10:29:09.355Z,28.03
2018-12-31T10:34:29.727Z,28.27
2018-12-31T10:39:48.236Z,27.90
2018-12-31T10:45:26.064Z,30.90
2018-12-31T10:50:44.605Z,29.67
2018-12-31T10:56:03.076Z,25.47
2018-12-31T11:01:21.555Z,28.15
2018-12-31T11:06:40.103Z,26.00
2018-12-31T11:11:58.587Z,27.73
2018-12-31T11:17:17.579Z,30.67
2018-12-31T11:22:36.058Z,29.47
2018-12-31T11:27:54.526Z,25.70
2018-12-31T11:33:32.340Z,28.67
2018-12-31T11:38:50.812Z,29.33
2018-12-31T11:44:09.291Z,27.10
2018-12-31T11:49:27.758Z,25.72
2018-12-31T11:54:46.494Z,27.00
2018-12-31T12:00:44.867Z,29.40
2018-12-31T12:06:03.340Z,28.07
2018-12-31T12:11:21.885Z,27.37
2018-12-31T12:16:40.428Z,29.07
2018-12-31T12:22:00.634Z,30.97
2018-12-31T12:27:19.178Z,28.07
2018-12-31T12:32:37.661Z,27.13
2018-12-31T12:37:56.125Z,27.50
2018-12-31T12:43:14.600Z,27.87
2018-12-31T12:48:33.081Z,26.50
2018-12-31T12:53:51.699Z,26.53
2018-12-31T12:59:12.141Z,31.13
2018-12-31T13:04:30.613Z,31.57
2018-12-31T13:09:49.167Z,32.67
2018-12-31T13:15:07.709Z,35.20
2018-12-31T13:20:26.248Z,32.57
2018-12-31T13:25:44.795Z,33.10
2018-12-31T13:31:03.381Z,34.57
2018-12-31T13:36:25.191Z,33.70
2018-12-31T13:41:43.775Z,29.90
2018-12-31T13:52:32.771Z,32.07
2018-12-31T13:57:53.028Z,35.83
2018-12-31T14:03:17.235Z,36.10
2018-12-31T14:08:32.070Z,35.13
2018-12-31T14:14:04.402Z,35.20
2018-12-31T14:19:22.893Z,34.60
2018-12-31T14:25:02.549Z,33.87
2018-12-31T14:30:21.026Z,32.57
2018-12-31T14:35:45.706Z,32.57
2018-12-31T14:40:59.765Z,33.40
2018-12-31T14:46:20.053Z,35.13
2018-12-31T14:51:38.534Z,35.47
2018-12-31T14:56:57.004Z,35.17
2018-12-31T15:02:15.566Z,34.07
2018-12-31T15:07:34.184Z,34.83
2018-12-31T15:12:52.663Z,33.13
2018-12-31T15:18:11.359Z,31.00
2018-12-31T15:23:29.947Z,32.40
2018-12-31T15:28:48.612Z,29.57
2018-12-31T15:34:26.498Z,28.87
2018-12-31T15:39:44.991Z,29.93
2018-12-31T15:45:45.697Z,28.87
2018-12-31T15:51:04.234Z,27.10
2018-12-31T15:56:22.893Z,28.20
2018-12-31T16:01:41.437Z,28.30
2018-12-31T16:12:32.423Z,26.10
2018-12-31T16:17:52.623Z,25.90
2018-12-31T16:23:11.164Z,26.47
2018-12-31T16:28:29.759Z,25.50
2018-12-31T16:33:48.233Z,24.77
2018-12-31T16:39:46.605Z,25.93
2018-12-31T16:45:45.794Z,29.60
2018-12-31T16:51:04.450Z,30.67
2018-12-31T16:56:23.231Z,26.70
2018-12-31T17:01:41.709Z,26.80
2018-12-31T17:07:00.255Z,26.80
2018-12-31T17:12:18.721Z,28.40
2018-12-31T17:17:37.204Z,26.73
2018-12-31T17:28:26.194Z,28.80
2018-12-31T17:33:44.671Z,27.83
2018-12-31T17:39:03.370Z,28.17
2018-12-31T17:44:21.840Z,29.03
2018-12-31T17:55:10.953Z,29.00
2018-12-31T18:00:29.423Z,28.20
2018-12-31T18:05:47.980Z,27.93
2018-12-31T18:11:06.511Z,27.30
2018-12-31T18:16:24.988Z,26.47
2018-12-31T18:27:14.053Z,26.10
2018-12-31T18:32:32.528Z,25.60
2018-12-31T18:37:51.014Z,25.90
2018-12-31T18:43:09.561Z,27.83
2018-12-31T18:48:28.103Z,26.30
2018-12-31T18:53:46.724Z,29.80
2018-12-31T18:59:05.276Z,29.30
2018-12-31T19:04:23.814Z,28.40
2018-12-31T19:09:44.439Z,27.00
2018-12-31T19:15:03.421Z,23.73
2018-12-31T19:20:21.885Z,22.70
2018-12-31T19:25:40.364Z,24.13
2018-12-31T19:30:58.891Z,22.07
2018-12-31T19:36:17.441Z,21.40
2018-12-31T19:41:36.054Z,20.10
2018-12-31T19:46:54.539Z,19.87
2018-12-31T19:52:13.026Z,23.40
2018-12-31T19:57:31.580Z,24.07
2018-12-31T20:02:50.059Z,23.23
2018-12-31T20:08:08.538Z,24.93
2018-12-31T20:13:27.005Z,26.43
2018-12-31T20:18:47.234Z,25.00
2018-12-31T20:24:05.851Z,26.90
2018-12-31T20:29:24.379Z,25.17
2018-12-31T20:34:42.869Z,25.02
2018-12-31T20:40:01.431Z,24.13
2018-12-31T20:45:19.971Z,25.33
2018-12-31T20:50:40.312Z,26.00
2018-12-31T20:55:58.851Z,27.03
2018-12-31T21:01:17.622Z,28.20
2018-12-31T21:06:36.094Z,26.53
2018-12-31T21:11:54.693Z,26.87
2018-12-31T21:17:13.170Z,25.90
2018-12-31T21:28:04.568Z,26.67
2018-12-31T21:33:23.078Z,26.37
2018-12-31T21:38:41.880Z,22.57
2018-12-31T21:44:00.342Z,24.13
2018-12-31T21:49:18.807Z,25.02
2018-12-31T21:54:37.345Z,27.90
2018-12-31T21:59:55.825Z,28.52
2018-12-31T22:05:33.709Z,27.37
2018-12-31T22:10:52.270Z,28.73
2018-12-31T22:16:10.887Z,35.23
2018-12-31T22:21:29.412Z,31.13
2018-12-31T22:26:47.996Z,40.53
2018-12-31T22:32:06.751Z,34.03
2018-12-31T22:37:25.218Z,37.97
2018-12-31T22:48:16.236Z,34.90
2018-12-31T22:53:34.780Z,37.47
2018-12-31T22:58:53.327Z,36.17
2018-12-31T23:04:11.914Z,178.13
2018-12-31T23:09:30.412Z,157.87
2018-12-31T23:14:48.912Z,466.20
2018-12-31T23:20:49.081Z,273.75
2018-12-31T23:26:07.562Z,123.50
2018-12-31T23:36:58.317Z,60.47
2018-12-31T23:42:16.862Z,79.70
2018-12-31T23:47:35.345Z,68.57
2018-12-31T23:52:53.938Z,49.25
2018-12-31T23:58:12.481Z,47.03
